Time;durP1;ratioP1;P1;durP2;ratioP2;P2;SDS_P1;SDS_P2;PMS_P1;PMS_P2;Temp;Humidity;BMP_temperature;BMP_pressure;BME280_temperature;BME280_humidity;BME280_pressure;Samples;Min_cycle;Max_cycle;Signal;HPM_P1;HPM_P2
2022/11/16 00:01:14;;;;;;;11.18;5.90;;;;;;;10.79;100.00;99765.00;5048420;28;20120;-67
2022/11/16 00:03:40;;;;;;;12.30;6.10;;;;;;;10.79;100.00;99755.16;5049698;28;20111;-67
2022/11/16 00:06:07;;;;;;;10.90;6.10;;;;;;;10.77;100.00;99754.59;5049697;28;20152;-67
2022/11/16 00:08:35;;;;;;;9.10;4.85;;;;;;;10.78;100.00;99750.06;5049616;28;20037;-67
2022/11/16 00:11:07;;;;;;;13.63;7.18;;;;;;;10.77;100.00;99751.06;5049663;28;20072;-66
2022/11/16 00:13:33;;;;;;;11.30;6.10;;;;;;;10.75;100.00;99760.13;5049708;28;20025;-67
2022/11/16 00:15:59;;;;;;;13.32;6.13;;;;;;;10.77;100.00;99751.91;5049666;28;20136;-67
2022/11/16 00:18:25;;;;;;;13.30;6.03;;;;;;;10.77;100.00;99743.09;5048267;28;20839;-67
2022/11/16 00:20:50;;;;;;;12.13;6.68;;;;;;;10.78;100.00;99750.88;5049556;28;20047;-67
2022/11/16 00:23:16;;;;;;;10.82;5.55;;;;;;;10.78;100.00;99750.88;5049470;28;20387;-67
2022/11/16 00:25:42;;;;;;;14.40;6.18;;;;;;;10.78;100.00;99755.41;5049568;28;20033;-67
2022/11/16 00:28:08;;;;;;;13.18;6.45;;;;;;;10.78;100.00;99766.06;5049498;28;20036;-67
2022/11/16 00:30:33;;;;;;;11.23;6.35;;;;;;;10.78;100.00;99758.88;5049427;28;20025;-67
2022/11/16 00:33:00;;;;;;;12.05;6.82;;;;;;;10.78;100.00;99758.88;5049392;28;20059;-67
2022/11/16 00:35:25;;;;;;;13.18;6.20;;;;;;;10.78;100.00;99764.19;5049313;28;20033;-67
2022/11/16 00:37:51;;;;;;;13.30;5.68;;;;;;;10.77;100.00;99759.91;5049269;28;20041;-67
2022/11/16 00:40:16;;;;;;;12.60;7.32;;;;;;;10.72;100.00;99751.78;5049468;28;20032;-67
2022/11/16 00:42:42;;;;;;;11.27;6.35;;;;;;;10.74;100.00;99755.00;5049294;28;20041;-67
2022/11/16 00:45:08;;;;;;;11.20;5.60;;;;;;;10.75;100.00;99759.31;5049469;28;20043;-67
2022/11/16 00:47:33;;;;;;;9.50;5.18;;;;;;;10.74;100.00;99763.00;5049256;28;20037;-67
2022/11/16 00:49:58;;;;;;;13.10;7.07;;;;;;;10.74;100.00;99773.69;5049098;28;20140;-67
2022/11/16 00:52:24;;;;;;;13.00;6.60;;;;;;;10.73;100.00;99778.19;5047966;28;20388;-67
2022/11/16 00:54:49;;;;;;;12.70;6.93;;;;;;;10.72;100.00;99783.78;5049240;28;20456;-67
2022/11/16 00:57:14;;;;;;;11.35;6.45;;;;;;;10.72;100.00;99778.44;5049236;28;20087;-67
2022/11/16 00:59:40;;;;;;;13.15;5.80;;;;;;;10.73;100.00;99764.88;5051332;28;20056;-67
2022/11/16 01:02:05;;;;;;;12.02;6.93;;;;;;;10.73;100.00;99762.19;5053014;28;20025;-67
2022/11/16 01:04:30;;;;;;;11.82;7.22;;;;;;;10.70;100.00;99746.66;5052961;28;20084;-67
2022/11/16 01:06:56;;;;;;;16.20;7.82;;;;;;;10.71;100.00;99742.13;5053028;28;20078;-67
2022/11/16 01:09:21;;;;;;;12.75;7.32;;;;;;;10.71;100.00;99732.28;5053066;28;20127;-67
2022/11/16 01:14:30;;;;;;;12.80;6.68;;;;;;;10.67;100.00;99730.31;5052037;28;20086;-68
2022/11/16 01:16:56;;;;;;;12.00;6.85;;;;;;;10.68;100.00;99738.06;5052936;28;20040;-68
2022/11/16 01:19:21;;;;;;;14.23;7.53;;;;;;;10.67;100.00;99733.78;5052730;28;20040;-68
2022/11/16 01:21:46;;;;;;;14.05;8.00;;;;;;;10.67;100.00;99739.09;5052510;28;20032;-68
2022/11/16 01:24:12;;;;;;;14.45;7.18;;;;;;;10.67;100.00;99738.31;5052636;28;20031;-68
2022/11/16 01:26:37;;;;;;;11.68;6.75;;;;;;;10.66;100.00;99732.16;5052562;28;20032;-68
2022/11/16 01:29:03;;;;;;;11.68;6.63;;;;;;;10.65;100.00;99751.03;5052663;28;20051;-68
2022/11/16 01:31:28;;;;;;;14.40;7.20;;;;;;;10.64;100.00;99736.09;5052617;28;20036;-68
2022/11/16 01:33:53;;;;;;;14.02;7.53;;;;;;;10.65;100.00;99727.03;5052489;28;20017;-68
2022/11/16 01:36:19;;;;;;;11.50;6.47;;;;;;;10.63;100.00;99719.25;5052535;28;20033;-68
2022/11/16 01:38:46;;;;;;;12.38;6.50;;;;;;;10.61;100.00;99705.34;5052381;28;20064;-68
2022/11/16 01:41:20;;;;;;;12.77;6.53;;;;;;;10.63;100.00;99719.25;5051185;28;20427;-67
2022/11/16 01:43:51;;;;;;;13.57;7.43;;;;;;;10.62;100.00;99724.81;5052248;28;20033;-68
2022/11/16 01:46:16;;;;;;;11.93;6.80;;;;;;;10.60;100.00;99716.22;5052383;28;20083;-68
2022/11/16 01:48:42;;;;;;;12.50;6.65;;;;;;;10.61;100.00;99716.03;5052278;28;20052;-68
2022/11/16 01:51:08;;;;;;;12.93;6.18;;;;;;;10.62;100.00;99704.31;5052082;28;20140;-68
2022/11/16 01:53:33;;;;;;;14.40;7.05;;;;;;;10.63;100.00;99713.13;5052219;28;20902;-68
2022/11/16 01:55:59;;;;;;;14.00;7.30;;;;;;;10.63;100.00;99708.59;5052204;28;20032;-68
2022/11/16 01:58:26;;;;;;;14.60;7.13;;;;;;;10.64;100.00;99707.56;5051989;28;20045;-68
2022/11/16 02:00:51;;;;;;;16.75;7.47;;;;;;;10.60;100.00;99703.72;5052050;28;20065;-68
2022/11/16 02:03:18;;;;;;;14.02;7.40;;;;;;;10.65;100.00;99716.38;5051976;28;20052;-68
2022/11/16 02:05:43;;;;;;;12.95;7.63;;;;;;;10.67;100.00;99698.31;5051997;28;20530;-68
2022/11/16 02:11:28;;;;;;;16.70;8.32;;;;;;;10.67;100.00;99700.97;5051895;28;20258;-68
2022/11/16 02:14:20;;;;;;;14.23;8.13;;;;;;;10.70;100.00;99704.00;5051820;28;20021;-68
2022/11/16 02:16:51;;;;;;;15.80;9.05;;;;;;;10.73;100.00;99695.53;5051896;28;20024;-68
2022/11/16 02:19:50;;;;;;;16.83;9.00;;;;;;;10.76;100.00;99696.94;5051800;28;20043;-68
2022/11/16 02:22:47;;;;;;;19.30;9.68;;;;;;;10.77;100.00;99690.56;5051525;28;20527;-68
2022/11/16 02:26:04;;;;;;;15.35;8.57;;;;;;;10.78;100.00;99689.53;5051542;28;20112;-68
2022/11/16 02:28:45;;;;;;;17.30;8.48;;;;;;;10.79;100.00;99685.81;5051412;28;20450;-68
2022/11/16 02:31:15;;;;;;;19.17;10.05;;;;;;;10.78;100.00;99684.19;5051593;28;20043;-68
2022/11/16 02:33:43;;;;;;;21.88;10.05;;;;;;;10.73;100.00;99682.19;5051347;28;20555;-68
2022/11/16 02:36:14;;;;;;;14.85;8.05;;;;;;;10.77;100.00;99693.25;5051415;28;20033;-67
2022/11/16 02:38:45;;;;;;;18.73;9.48;;;;;;;10.77;100.00;99687.06;5051226;28;20036;-68
2022/11/16 02:41:16;;;;;;;17.20;9.03;;;;;;;10.79;100.00;99688.47;5051405;28;20512;-68
2022/11/16 02:43:45;;;;;;;15.38;8.55;;;;;;;10.75;100.00;99674.78;5051253;28;20051;-68
2022/11/16 02:46:28;;;;;;;15.27;8.68;;;;;;;10.79;100.00;99685.81;5051179;28;20399;-68
2022/11/16 02:48:59;;;;;;;15.73;8.20;;;;;;;10.79;100.00;99685.81;5051123;28;20040;-68
2022/11/16 02:51:26;;;;;;;16.33;8.70;;;;;;;10.79;100.00;99691.13;5050879;28;20396;-68
2022/11/16 02:54:04;;;;;;;17.88;9.45;;;;;;;10.78;100.00;99689.53;5051103;28;20087;-68
2022/11/16 02:56:29;;;;;;;15.55;8.82;;;;;;;10.81;100.00;99701.59;5050853;28;20024;-68
2022/11/16 02:58:57;;;;;;;17.80;9.18;;;;;;;10.78;100.00;99694.84;5050882;28;20108;-68
2022/11/16 03:02:06;;;;;;;17.92;9.50;;;;;;;10.80;100.00;99691.97;5050925;28;20083;-68
2022/11/16 03:04:38;;;;;;;17.10;8.32;;;;;;;10.80;100.00;99708.78;5049207;28;20033;-68
2022/11/16 03:07:07;;;;;;;16.20;8.38;;;;;;;10.80;100.00;99689.31;5050726;28;20025;-68
2022/11/16 03:09:37;;;;;;;16.02;8.35;;;;;;;10.83;100.00;99707.53;5051049;28;20099;-68
2022/11/16 03:12:08;;;;;;;14.88;8.00;;;;;;;10.80;100.00;99703.47;5050890;28;20536;-68
2022/11/16 03:14:56;;;;;;;13.37;8.17;;;;;;;10.83;100.00;99708.34;5050571;28;20028;-68
2022/11/16 03:17:30;;;;;;;13.05;7.00;;;;;;;10.83;100.00;99705.66;5050583;28;20490;-68
2022/11/16 03:20:25;;;;;;;13.88;7.22;;;;;;;10.81;100.00;99697.06;5049214;28;20028;-68
2022/11/16 03:22:58;;;;;;;15.80;7.20;;;;;;;10.79;100.00;99707.16;5049749;28;20029;-68
2022/11/16 03:25:28;;;;;;;12.75;6.57;;;;;;;10.78;100.00;99708.19;5050495;28;20053;-68
2022/11/16 03:27:53;;;;;;;12.27;6.32;;;;;;;10.79;100.00;99706.34;5051452;28;20029;-68
2022/11/16 03:30:21;;;;;;;12.73;6.77;;;;;;;10.75;100.00;99701.47;5050454;28;20025;-68
2022/11/16 03:33:17;;;;;;;12.02;6.22;;;;;;;10.75;100.00;99696.13;5050298;28;20311;-68
2022/11/16 03:35:45;;;;;;;9.70;5.60;;;;;;;10.73;100.00;99708.06;5050308;28;20041;-68
2022/11/16 03:38:12;;;;;;;10.23;6.32;;;;;;;10.72;100.00;99714.44;5050328;28;20029;-68
2022/11/16 03:40:39;;;;;;;12.88;6.45;;;;;;;10.67;100.00;99709.78;5050086;28;20029;-68
2022/11/16 03:43:06;;;;;;;9.82;5.75;;;;;;;10.66;100.00;99716.16;5049947;28;20475;-68
2022/11/16 03:45:32;;;;;;;12.20;6.15;;;;;;;10.64;100.00;99720.09;5050107;28;20025;-68
2022/11/16 03:47:58;;;;;;;11.15;5.68;;;;;;;10.65;100.00;99722.50;5048675;28;20051;-70
2022/11/16 03:50:24;;;;;;;11.13;5.50;;;;;;;10.63;100.00;99719.25;5048576;28;20408;-70
2022/11/16 03:52:49;;;;;;;12.43;6.15;;;;;;;10.61;100.00;99716.03;5050100;28;20028;-70
2022/11/16 03:55:15;;;;;;;10.93;5.85;;;;;;;10.57;100.00;99714.03;5049886;28;20025;-71
2022/11/16 03:57:40;;;;;;;7.53;4.63;;;;;;;10.50;100.00;99719.41;5049918;28;20029;-71
2022/11/16 04:00:07;;;;;;;10.45;4.85;;;;;;;10.48;100.00;99733.00;5049839;28;20124;-71
2022/11/16 04:02:32;;;;;;;7.63;4.35;;;;;;;10.45;100.00;99743.25;5048477;28;20048;-71
2022/11/16 04:24:16;;;;;;;6.65;3.50;;;;;;;10.19;100.00;99742.53;5049580;28;20044;-71
2022/11/16 04:29:29;;;;;;;6.30;3.00;;;;;;;10.14;100.00;99753.03;5049625;28;20527;-71
2022/11/16 04:40:07;;;;;;;4.22;2.72;;;;;;;9.99;100.00;99748.03;5053676;28;20056;-71
2022/11/16 04:42:33;;;;;;;6.50;2.83;;;;;;;10.00;100.00;99754.97;5053275;28;20048;-71
2022/11/16 04:47:42;;;;;;;6.22;2.92;;;;;;;9.90;100.00;99746.69;5053810;28;20051;-71
2022/11/16 04:50:07;;;;;;;3.42;2.80;;;;;;;9.97;100.00;99765.28;5052987;28;20493;-71
2022/11/16 04:52:33;;;;;;;5.13;3.40;;;;;;;9.96;100.00;99776.97;5053625;28;20032;-71
2022/11/16 04:54:58;;;;;;;7.32;3.67;;;;;;;9.92;100.00;99773.91;5053257;28;20071;-71
2022/11/16 04:57:23;;;;;;;5.95;3.13;;;;;;;9.91;100.00;99776.81;5053252;28;20048;-71
2022/11/16 04:59:49;;;;;;;4.03;2.47;;;;;;;9.89;100.00;99785.00;5053139;28;20039;-71
2022/11/16 05:02:14;;;;;;;5.32;2.35;;;;;;;9.87;100.00;99789.72;5053336;28;20029;-72
2022/11/16 05:04:41;;;;;;;6.53;2.75;;;;;;;9.86;100.00;99786.25;5053044;28;20171;-71
2022/11/16 05:07:11;;;;;;;4.20;2.78;;;;;;;9.85;100.00;99784.63;5052984;28;20033;-72
2022/11/16 05:09:41;;;;;;;4.55;2.08;;;;;;;9.82;100.00;99785.09;5052865;28;20033;-71
2022/11/16 05:12:13;;;;;;;5.18;2.35;;;;;;;9.79;100.00;99787.34;5052897;28;20039;-71
2022/11/16 05:14:39;;;;;;;7.82;3.00;;;;;;;9.73;100.00;99786.38;5052988;28;20013;-71
2022/11/16 05:17:04;;;;;;;5.47;2.30;;;;;;;9.75;100.00;99791.50;5051450;28;20040;-71
2022/11/16 05:22:14;;;;;;;3.95;2.97;;;;;;;9.72;100.00;99798.06;5052688;28;20052;-71
2022/11/16 05:24:39;;;;;;;7.30;3.47;;;;;;;9.76;100.00;99804.56;5052644;28;20049;-71
2022/11/16 05:27:07;;;;;;;5.22;2.60;;;;;;;9.73;100.00;99796.22;5052775;28;20143;-71
2022/11/16 05:29:33;;;;;;;4.05;2.70;;;;;;;9.71;100.00;99791.09;5052702;28;20036;-71
2022/11/16 05:31:59;;;;;;;4.90;3.13;;;;;;;9.68;100.00;99793.38;5052677;28;20037;-71
2022/11/16 05:34:25;;;;;;;8.23;3.10;;;;;;;9.69;100.00;99792.34;5052507;28;20025;-71
2022/11/16 05:36:50;;;;;;;6.95;3.33;;;;;;;9.60;100.00;99792.63;5052436;28;20388;-68
2022/11/16 05:39:16;;;;;;;4.38;2.50;;;;;;;9.62;100.00;99798.53;5052657;28;20033;-68
2022/11/16 05:41:41;;;;;;;7.30;3.25;;;;;;;9.55;100.00;99789.78;5052400;28;20056;-68
2022/11/16 05:44:07;;;;;;;5.47;2.95;;;;;;;9.55;100.00;99795.09;5052158;28;20553;-67
2022/11/16 05:46:32;;;;;;;7.63;3.55;;;;;;;9.50;100.00;99797.59;5050614;28;20044;-68
2022/11/16 05:48:58;;;;;;;7.22;3.25;;;;;;;9.44;100.00;99785.16;5052302;28;20035;-68
2022/11/16 05:51:23;;;;;;;5.05;3.03;;;;;;;9.37;100.00;99790.50;5052002;28;20053;-68
2022/11/16 05:53:48;;;;;;;3.60;2.30;;;;;;;9.32;100.00;99786.88;5052545;28;20025;-68
2022/11/16 05:56:14;;;;;;;6.25;2.15;;;;;;;9.20;100.00;99776.91;5052136;28;20033;-67
2022/11/16 05:58:40;;;;;;;5.15;3.05;;;;;;;9.18;100.00;99784.28;5052059;28;20033;-68
2022/11/16 06:01:05;;;;;;;4.03;2.55;;;;;;;9.09;100.00;99785.59;5052174;28;20029;-67
2022/11/16 06:03:31;;;;;;;6.00;2.40;;;;;;;9.04;100.00;99798.72;5052039;28;20119;-67
2022/11/16 06:05:57;;;;;;;4.38;2.92;;;;;;;8.98;100.00;99802.19;5052019;28;20029;-68
2022/11/16 06:08:23;;;;;;;11.60;2.85;;;;;;;8.91;100.00;99801.44;5051991;28;20073;-68
2022/11/16 06:10:48;;;;;;;4.70;2.70;;;;;;;8.83;100.00;99807.81;5051963;28;20087;-68
2022/11/16 06:13:14;;;;;;;7.85;3.38;;;;;;;8.78;100.00;99816.41;5051780;28;20079;-67
2022/11/16 06:15:40;;;;;;;4.70;3.10;;;;;;;8.70;100.00;99813.97;5051815;28;20241;-67
2022/11/16 06:18:06;;;;;;;6.10;2.42;;;;;;;8.63;100.00;99812.38;5051766;28;20102;-67
2022/11/16 06:20:33;;;;;;;4.00;2.58;;;;;;;8.60;100.00;99821.56;5051666;28;20100;-67
2022/11/16 06:22:58;;;;;;;7.30;3.22;;;;;;;8.57;100.00;99827.31;5051404;28;20055;-67
2022/11/16 06:25:23;;;;;;;9.35;3.92;;;;;;;8.53;100.00;99823.44;5051665;28;20467;-67
2022/11/16 06:27:49;;;;;;;8.15;2.75;;;;;;;8.49;100.00;99824.88;5051531;28;20148;-67
2022/11/16 06:30:15;;;;;;;7.03;3.80;;;;;;;8.45;100.00;99823.66;5051469;28;20058;-67
2022/11/16 06:32:40;;;;;;;7.63;2.97;;;;;;;8.42;100.00;99832.84;5051501;28;20059;-68
2022/11/16 06:35:06;;;;;;;6.63;2.85;;;;;;;8.37;100.00;99824.66;5051076;28;20047;-67
2022/11/16 06:37:31;;;;;;;6.13;3.22;;;;;;;8.34;100.00;99833.88;5051097;28;20132;-68
2022/11/16 06:39:56;;;;;;;7.45;3.22;;;;;;;8.32;100.00;99843.88;5051356;28;20634;-68
2022/11/16 06:42:22;;;;;;;11.98;3.30;;;;;;;8.31;100.00;99841.44;5051006;28;20025;-67
2022/11/16 06:44:47;;;;;;;6.20;2.63;;;;;;;8.29;100.00;99843.47;5051210;28;20025;-67
2022/11/16 06:47:12;;;;;;;6.40;3.47;;;;;;;8.27;100.00;99850.84;5051198;28;20112;-67
2022/11/16 06:49:38;;;;;;;8.57;3.35;;;;;;;8.24;100.00;99845.94;5050949;28;20064;-67
2022/11/16 06:52:03;;;;;;;9.30;3.05;;;;;;;8.22;100.00;99845.31;5051019;28;20067;-67
2022/11/16 06:54:28;;;;;;;9.45;3.25;;;;;;;8.19;100.00;99853.69;5051114;28;20029;-68
2022/11/16 06:56:54;;;;;;;6.07;3.15;;;;;;;8.19;100.00;99861.66;5050067;28;20087;-67
2022/11/16 06:59:19;;;;;;;9.80;4.22;;;;;;;8.17;100.00;99863.72;5050793;28;20032;-67
2022/11/16 07:01:44;;;;;;;7.82;3.83;;;;;;;8.11;100.00;99862.69;5050671;28;20103;-67
2022/11/16 07:04:10;;;;;;;31.77;7.15;;;;;;;8.15;100.00;99860.44;5050641;28;20052;-67
2022/11/16 07:06:37;;;;;;;8.60;4.75;;;;;;;8.16;100.00;99870.06;5050773;28;20107;-67
2022/11/16 07:09:06;;;;;;;7.82;3.67;;;;;;;8.15;100.00;99869.25;5050533;28;20033;-67
2022/11/16 07:11:33;;;;;;;7.72;3.40;;;;;;;8.15;100.00;99871.06;5050730;28;20468;-67
2022/11/16 07:13:59;;;;;;;5.07;2.63;;;;;;;8.10;100.00;99872.50;5050610;28;20078;-71
2022/11/16 07:16:24;;;;;;;5.95;3.28;;;;;;;8.08;100.00;99877.19;5050487;28;20025;-71
2022/11/16 07:18:51;;;;;;;5.78;3.10;;;;;;;8.08;100.00;99877.19;5050310;28;20028;-71
2022/11/16 07:21:17;;;;;;;7.20;3.22;;;;;;;8.08;100.00;99871.06;5050349;28;20563;-74
2022/11/16 07:23:43;;;;;;;8.75;3.10;;;;;;;8.08;100.00;99879.03;5050233;28;20391;-70
2022/11/16 07:26:10;;;;;;;10.60;3.83;;;;;;;8.05;100.00;99874.97;5050497;28;20032;-69
2022/11/16 07:28:35;;;;;;;9.52;2.95;;;;;;;8.05;100.00;99872.31;5050436;28;20040;-69
2022/11/16 07:31:02;;;;;;;9.10;4.15;;;;;;;8.08;100.00;99877.19;5050457;28;20029;-70
2022/11/16 07:33:27;;;;;;;7.57;4.03;;;;;;;8.08;100.00;99882.50;5050232;28;20086;-70
2022/11/16 07:35:53;;;;;;;9.70;3.97;;;;;;;8.08;100.00;99881.69;5050199;28;20037;-70
2022/11/16 07:38:18;;;;;;;7.53;4.80;;;;;;;8.12;100.00;99894.38;5048678;28;20033;-69
2022/11/16 07:40:44;;;;;;;8.68;3.72;;;;;;;8.13;100.00;99893.34;5049972;28;20036;-69
2022/11/16 07:43:11;;;;;;;8.57;4.15;;;;;;;8.15;100.00;99895.81;5050060;28;20037;-69
2022/11/16 07:45:38;;;;;;;8.95;4.30;;;;;;;8.17;100.00;99901.69;5049838;28;20084;-69
2022/11/16 07:48:04;;;;;;;14.32;4.88;;;;;;;8.20;100.00;99905.78;5049932;28;20052;-70
2022/11/16 07:50:29;;;;;;;10.93;4.00;;;;;;;8.21;100.00;99910.09;5049705;28;20053;-69
2022/11/16 07:52:55;;;;;;;9.18;4.05;;;;;;;8.28;100.00;99905.63;5049866;28;20028;-69
2022/11/16 07:55:21;;;;;;;14.02;4.40;;;;;;;8.31;100.00;99913.16;5049778;28;20044;-69
2022/11/16 07:57:46;;;;;;;14.57;4.65;;;;;;;8.33;100.00;99906.63;5049501;28;20048;-70
2022/11/16 08:00:12;;;;;;;8.65;3.88;;;;;;;8.38;100.00;99911.31;5049600;28;20033;-72
2022/11/16 08:02:37;;;;;;;8.77;4.57;;;;;;;8.40;100.00;99905.81;5049888;28;20033;-69
2022/11/16 08:05:03;;;;;;;10.35;4.18;;;;;;;8.47;100.00;99917.28;5049749;28;20829;-72
2022/11/16 08:07:28;;;;;;;9.35;3.70;;;;;;;8.50;100.00;99922.19;5049414;28;20037;-72
2022/11/16 08:09:54;;;;;;;11.90;3.83;;;;;;;8.52;100.00;99920.13;5049742;28;20040;-74
2022/11/16 08:12:19;;;;;;;7.25;3.00;;;;;;;8.58;100.00;99915.81;5049145;28;20037;-70
2022/11/16 08:14:44;;;;;;;9.38;3.42;;;;;;;8.64;100.00;99915.00;5049475;28;20024;-70
2022/11/16 08:17:10;;;;;;;11.43;4.22;;;;;;;8.68;100.00;99919.69;5048203;28;20032;-70
2022/11/16 08:19:35;;;;;;;11.35;3.33;;;;;;;8.75;100.00;99917.84;5049517;28;20021;-70
2022/11/16 08:22:02;;;;;;;7.93;3.25;;;;;;;8.79;100.00;99915.59;5049511;28;20037;-71
2022/11/16 08:24:27;;;;;;;5.50;2.80;;;;;;;8.87;100.00;99919.88;5049415;28;20048;-71
2022/11/16 08:26:53;;;;;;;5.05;2.80;;;;;;;8.91;100.00;99927.22;5049324;28;21007;-71
2022/11/16 08:29:18;;;;;;;6.63;3.35;;;;;;;8.96;100.00;99937.22;5049487;28;20392;-69
2022/11/16 08:31:44;;;;;;;8.07;2.90;;;;;;;9.02;100.00;99935.59;5049301;28;20067;-72
2022/11/16 08:34:10;;;;;;;9.43;2.42;;;;;;;9.05;100.00;99932.50;5049401;28;20090;-70
2022/11/16 08:36:35;;;;;;;8.15;2.65;;;;;;;9.11;100.00;99921.00;5049307;28;20469;-69
2022/11/16 08:39:00;;;;;;;12.68;3.78;;;;;;;9.18;100.00;99932.47;5049571;28;20032;-68
2022/11/16 08:41:26;;;;;;;9.45;3.72;;;;;;;9.21;100.00;99926.72;5049435;28;20070;-70
2022/11/16 08:43:52;;;;;;;18.88;3.55;;;;;;;9.16;100.00;99921.19;5049349;28;20029;-71
2022/11/16 08:46:19;;;;;;;6.70;2.40;;;;;;;9.26;100.00;99926.09;5049384;28;20036;-69
2022/11/16 08:48:45;;;;;;;8.48;3.17;;;;;;;9.36;100.00;99932.59;5049170;28;20617;-71
2022/11/16 08:51:12;;;;;;;7.97;2.83;;;;;;;9.43;100.00;99941.38;5048989;28;20052;-70
2022/11/16 08:53:38;;;;;;;8.88;2.42;;;;;;;9.50;100.00;99945.84;5047851;28;20416;-72
2022/11/16 08:56:10;;;;;;;11.73;2.65;;;;;;;9.56;100.00;99950.31;5049180;28;20033;-68
2022/11/16 08:58:36;;;;;;;9.10;2.97;;;;;;;9.59;100.00;99941.91;5049149;28;20090;-69
2022/11/16 09:01:13;;;;;;;7.13;2.95;;;;;;;9.62;100.00;99944.97;5049171;28;20476;-71
2022/11/16 09:03:39;;;;;;;7.53;2.45;;;;;;;9.69;100.00;99947.56;5049067;28;20025;-69
2022/11/16 09:06:06;;;;;;;6.50;2.42;;;;;;;9.75;100.00;99956.56;5049159;28;20075;-70
2022/11/16 09:08:32;;;;;;;5.25;2.38;;;;;;;9.81;100.00;99953.88;5048803;28;20056;-69
2022/11/16 09:10:57;;;;;;;8.23;2.58;;;;;;;9.84;100.00;99950.78;5049212;28;20059;-70
2022/11/16 09:13:24;;;;;;;10.65;2.47;;;;;;;9.92;100.00;99957.69;5049115;28;20060;-73
2022/11/16 09:15:57;;;;;;;9.57;2.42;;;;;;;9.99;100.00;99955.81;5049029;28;20108;-70
2022/11/16 09:18:23;;;;;;;12.52;2.58;;;;;;;10.07;100.00;99957.41;5048983;28;20043;-69
2022/11/16 09:20:48;;;;;;;6.72;2.28;;;;;;;10.39;100.00;99963.53;5051187;28;20040;-70
2022/11/16 09:23:14;;;;;;;6.97;2.30;;;;;;;10.12;100.00;99954.09;5052626;28;20025;-70
2022/11/16 09:25:40;;;;;;;8.48;2.60;;;;;;;10.10;100.00;99952.44;5052879;28;20111;-70
2022/11/16 09:28:05;;;;;;;9.48;3.00;;;;;;;10.11;100.00;99958.59;5052778;28;20472;-73
2022/11/16 09:30:30;;;;;;;6.25;2.50;;;;;;;10.13;100.00;99953.06;5052653;28;20061;-71
2022/11/16 09:32:59;;;;;;;10.98;2.50;;;;;;;10.19;100.00;99952.19;5052729;28;20044;-72
2022/11/16 09:35:25;;;;;;;12.07;2.95;;;;;;;10.20;100.00;99945.84;5052490;28;20559;-72
2022/11/16 09:37:50;;;;;;;18.45;3.35;;;;;;;10.23;100.00;99956.06;5052537;28;20037;-71
2022/11/16 09:40:16;;;;;;;8.07;2.75;;;;;;;10.24;100.00;99955.00;5052367;28;20025;-72
2022/11/16 09:42:47;;;;;;;6.10;2.40;;;;;;;10.25;100.00;99954.81;5052453;28;20384;-68
2022/11/16 09:45:18;;;;;;;7.65;2.10;;;;;;;10.30;100.00;99952.34;5052430;28;20031;-67
2022/11/16 09:47:47;;;;;;;7.85;2.80;;;;;;;10.29;100.00;99953.34;5052358;28;20467;-68
2022/11/16 09:50:39;;;;;;;7.68;1.95;;;;;;;10.36;100.00;99969.31;5052179;28;20400;-68
2022/11/16 09:53:16;;;;;;;2.95;1.75;;;;;;;10.38;100.00;99963.78;5051639;28;20037;-68
2022/11/16 09:55:51;;;;;;;13.38;3.00;;;;;;;10.44;100.00;99970.91;5052114;28;20044;-68
2022/11/16 09:58:23;;;;;;;4.95;2.40;;;;;;;10.46;100.00;99966.16;5052091;28;20492;-68
2022/11/16 10:00:57;;;;;;;7.63;2.42;;;;;;;10.46;100.00;99968.84;5052036;28;20037;-68
2022/11/16 10:03:25;;;;;;;8.70;2.22;;;;;;;10.48;100.00;99958.78;5051973;28;20056;-70
2022/11/16 10:05:58;;;;;;;7.03;2.40;;;;;;;10.56;100.00;99971.00;5047435;28;20492;-69
2022/11/16 10:08:52;;;;;;;7.57;3.10;;;;;;;10.65;100.00;99970.50;5045599;28;20045;-67
2022/11/16 10:11:36;;;;;;;7.25;2.63;;;;;;;10.68;100.00;99974.59;5045888;28;20537;-67
2022/11/16 10:14:17;;;;;;;5.63;2.20;;;;;;;10.70;100.00;99968.00;5046135;28;20032;-68
2022/11/16 10:16:57;;;;;;;10.07;2.97;;;;;;;10.75;100.00;99970.81;5045756;28;20052;-68
2022/11/16 10:19:26;;;;;;;8.65;3.25;;;;;;;10.79;100.00;99965.03;5044595;28;20547;-68
2022/11/16 10:22:05;;;;;;;6.60;2.25;;;;;;;10.80;100.00;99975.50;5045449;28;20511;-68
2022/11/16 10:24:52;;;;;;;8.05;3.03;;;;;;;10.83;100.00;99967.06;5045747;28;20032;-67
2022/11/16 10:27:33;;;;;;;10.20;4.78;;;;;;;10.91;100.00;99966.78;5045626;28;20024;-66
2022/11/16 10:30:15;;;;;;;8.52;2.35;;;;;;;10.95;100.00;99972.47;5046202;28;20028;-66
2022/11/16 10:32:52;;;;;;;7.00;3.22;;;;;;;11.01;100.00;99970.81;5044159;28;20147;-67
2022/11/16 10:35:26;;;;;;;6.55;2.40;;;;;;;11.05;100.00;99970.13;5045266;28;20029;-67
2022/11/16 10:37:52;;;;;;;4.75;1.70;;;;;;;11.07;100.00;99970.72;5045634;28;20031;-67
2022/11/16 10:40:29;;;;;;;5.80;2.78;;;;;;;11.13;100.00;99961.00;5045583;28;20419;-67
2022/11/16 10:43:13;;;;;;;5.78;2.20;;;;;;;11.13;100.00;99969.84;5045461;28;20029;-67
2022/11/16 10:46:04;;;;;;;9.38;2.85;;;;;;;11.15;100.00;99969.59;5044398;28;20017;-69
2022/11/16 10:48:45;;;;;;;5.20;2.13;;;;;;;11.16;100.00;99963.22;5045141;28;20132;-66
2022/11/16 10:51:10;;;;;;;8.15;3.03;;;;;;;11.17;100.00;99960.34;5045177;28;20075;-66
2022/11/16 10:53:39;;;;;;;7.80;2.80;;;;;;;11.18;100.00;99958.47;5044522;28;20017;-67
2022/11/16 10:56:22;;;;;;;5.88;2.95;;;;;;;11.23;100.00;99961.31;5044741;28;20029;-67
2022/11/16 10:58:57;;;;;;;8.07;2.85;;;;;;;11.22;100.00;99954.34;5044561;28;20372;-67
2022/11/16 11:01:37;;;;;;;8.20;3.25;;;;;;;11.26;100.00;99955.50;5049633;28;20111;-68
2022/11/16 11:04:14;;;;;;;6.10;2.03;;;;;;;11.29;100.00;99951.59;5050889;28;20070;-68
2022/11/16 11:06:40;;;;;;;10.07;2.90;;;;;;;11.29;100.00;99954.25;5050834;28;20024;-67
2022/11/16 11:09:32;;;;;;;12.63;4.20;;;;;;;11.34;100.00;99951.72;5050981;28;20091;-66
2022/11/16 11:15:12;;;;;;;4.00;2.20;;;;;;;11.22;100.00;99962.34;5050619;28;20395;-65
2022/11/16 11:17:42;;;;;;;7.05;2.45;;;;;;;11.18;100.00;99953.97;5050247;28;20024;-66
2022/11/16 11:20:13;;;;;;;5.35;2.53;;;;;;;11.21;100.00;99950.03;5050460;28;20036;-66
2022/11/16 11:22:55;;;;;;;10.23;2.67;;;;;;;11.26;100.00;99947.50;5050387;28;20033;-65
2022/11/16 11:25:33;;;;;;;4.38;2.20;;;;;;;11.43;100.00;99942.38;5050543;28;20431;-64
2022/11/16 11:28:30;;;;;;;7.35;2.63;;;;;;;11.56;99.96;99944.09;5050412;28;20025;-66
2022/11/16 11:31:24;;;;;;;7.28;2.80;;;;;;;11.67;100.00;99943.31;5048287;28;20056;-66
2022/11/16 11:33:59;;;;;;;5.68;2.00;;;;;;;11.77;99.52;99948.13;5049708;28;20375;-66
2022/11/16 11:36:34;;;;;;;6.10;2.45;;;;;;;11.81;99.59;99947.41;5050258;28;20033;-66
2022/11/16 11:39:05;;;;;;;4.43;2.60;;;;;;;11.75;97.38;99943.00;5050361;28;20472;-66
2022/11/16 11:41:36;;;;;;;10.88;1.65;;;;;;;11.72;96.72;99939.97;5049925;28;20123;-66
2022/11/16 11:44:17;;;;;;;6.18;2.10;;;;;;;11.85;99.35;99932.56;5049585;28;20484;-65
2022/11/16 11:46:59;;;;;;;5.20;1.50;;;;;;;11.88;97.11;99930.53;5049826;28;20051;-66
2022/11/16 11:49:34;;;;;;;12.23;3.42;;;;;;;11.87;98.67;99929.72;5048487;28;20036;-67
2022/11/16 11:52:07;;;;;;;4.25;2.35;;;;;;;11.95;96.79;99925.91;5049800;28;20036;-67
2022/11/16 11:54:40;;;;;;;10.82;2.58;;;;;;;11.85;95.09;99927.22;5049898;28;20044;-66
2022/11/16 11:57:15;;;;;;;11.82;1.65;;;;;;;11.75;95.31;99932.31;5049860;28;20070;-66
2022/11/16 11:59:40;;;;;;;6.20;1.95;;;;;;;11.76;95.77;99931.28;5049872;28;20017;-66
2022/11/16 12:02:15;;;;;;;7.63;1.55;;;;;;;11.84;96.19;99928.28;5049702;28;20037;-67
2022/11/16 12:04:58;;;;;;;8.20;1.75;;;;;;;11.87;96.16;99918.19;5049499;28;20033;-67
2022/11/16 12:07:47;;;;;;;4.47;1.67;;;;;;;11.83;94.72;99915.13;5049572;28;20040;-67
2022/11/16 12:10:30;;;;;;;3.13;1.77;;;;;;;11.77;94.17;99916.88;5049754;28;20468;-67
2022/11/16 12:13:13;;;;;;;5.18;1.60;;;;;;;11.74;94.45;99920.00;5049448;28;20025;-67
2022/11/16 12:15:48;;;;;;;5.95;1.60;;;;;;;11.76;95.28;99914.41;5049353;28;20053;-67
2022/11/16 12:18:49;;;;;;;8.93;1.85;;;;;;;11.86;96.17;99912.03;5049392;28;20480;-67
2022/11/16 12:21:30;;;;;;;5.03;1.98;;;;;;;11.91;94.44;99892.66;5049185;28;20039;-67
2022/11/16 12:24:26;;;;;;;4.00;1.70;;;;;;;11.89;94.23;99898.22;5049378;28;20033;-67